Time;durP1;ratioP1;P1;durP2;ratioP2;P2;SDS_P1;SDS_P2;PMS_P1;PMS_P2;Temp;Humidity;BMP_temperature;BMP_pressure;BME280_temperature;BME280_humidity;BME280_pressure;Samples;Min_cycle;Max_cycle;Signal;HPM_P1;HPM_P2
2023/03/23 00:02:25;;;;;;;31.20;12.40;;;;;;;11.03;70.34;99963.10;111067;1209;97852;-64
2023/03/23 00:04:51;;;;;;;26.40;12.60;;;;;;;11.00;70.34;99960.77;110831;1210;138549;-64
2023/03/23 00:07:21;;;;;;;26.20;11.80;;;;;;;10.98;70.30;99958.37;111153;1209;95139;-64
2023/03/23 00:09:53;;;;;;;30.70;12.10;;;;;;;10.96;70.38;99960.45;111095;1212;100410;-64
2023/03/23 00:12:33;;;;;;;26.50;12.40;;;;;;;10.94;70.48;99955.92;111030;1209;138413;-64
2023/03/23 00:15:08;;;;;;;27.50;11.80;;;;;;;10.92;70.40;99956.77;110993;1206;97649;-64
2023/03/23 00:17:34;;;;;;;24.20;11.90;;;;;;;10.89;70.35;99951.17;110932;1212;139116;-64
2023/03/23 00:20:00;;;;;;;26.80;11.90;;;;;;;10.87;70.49;99946.67;111063;1212;97734;-64
2023/03/23 00:22:28;;;;;;;29.70;12.00;;;;;;;10.84;70.46;99943.63;111196;1209;139418;-64
2023/03/23 00:24:53;;;;;;;25.90;11.70;;;;;;;10.82;70.51;99944.08;111389;1212;97721;-64
2023/03/23 00:27:21;;;;;;;21.80;10.50;;;;;;;10.81;70.41;99947.19;111132;1212;97592;-64
2023/03/23 00:29:52;;;;;;;26.90;11.70;;;;;;;10.77;70.53;99943.27;111039;1209;139101;-64
2023/03/23 00:32:20;;;;;;;26.60;11.10;;;;;;;10.76;70.47;99944.23;111071;1212;99929;-63
2023/03/23 00:34:49;;;;;;;25.20;10.90;;;;;;;10.72;70.54;99944.96;110956;1209;139455;-64
2023/03/23 00:37:16;;;;;;;24.00;11.10;;;;;;;10.70;70.47;99942.77;111101;1209;96216;-64
2023/03/23 00:39:44;;;;;;;19.90;9.90;;;;;;;10.67;70.46;99939.17;111157;1209;96015;-64
2023/03/23 00:42:10;;;;;;;22.80;10.00;;;;;;;10.64;70.58;99941.65;111006;1212;139528;-64
2023/03/23 00:44:36;;;;;;;23.90;10.30;;;;;;;10.63;70.66;99941.34;111105;1212;97580;-64
2023/03/23 00:47:03;;;;;;;25.20;10.50;;;;;;;10.63;70.60;99936.02;110941;1210;140297;-63
2023/03/23 00:49:28;;;;;;;19.60;9.10;;;;;;;10.62;70.58;99934.79;111238;1209;97701;-63
2023/03/23 00:51:56;;;;;;;23.30;10.70;;;;;;;10.62;70.56;99934.98;111079;1212;97785;-63
2023/03/23 00:54:22;;;;;;;21.80;9.60;;;;;;;10.61;70.68;99931.48;110929;1209;138450;-63
2023/03/23 00:56:48;;;;;;;22.00;10.10;;;;;;;10.60;70.66;99926.85;111169;1212;120676;-63
2023/03/23 00:59:14;;;;;;;24.60;10.50;;;;;;;10.61;70.68;99921.10;110924;1212;140896;-63
2023/03/23 01:01:39;;;;;;;27.20;9.90;;;;;;;10.61;70.80;99918.23;111063;1210;97595;-63
2023/03/23 01:04:05;;;;;;;23.80;10.90;;;;;;;10.61;70.70;99916.61;110933;1212;139985;-63
2023/03/23 01:06:34;;;;;;;21.60;9.60;;;;;;;10.61;70.72;99909.88;111051;1209;97603;-63
2023/03/23 01:09:02;;;;;;;21.00;9.40;;;;;;;10.61;70.69;99908.41;111088;1212;97897;-64
2023/03/23 01:11:28;;;;;;;24.50;10.60;;;;;;;10.61;70.82;99910.40;110900;1210;139472;-64
2023/03/23 01:13:53;;;;;;;25.60;10.90;;;;;;;10.60;70.81;99904.88;111065;1212;97654;-64
2023/03/23 01:16:19;;;;;;;31.30;11.40;;;;;;;10.59;70.82;99901.59;110911;1212;138732;-64
2023/03/23 01:18:44;;;;;;;36.60;12.00;;;;;;;10.56;70.78;99904.95;111084;1209;96859;-63
2023/03/23 01:21:13;;;;;;;29.50;11.00;;;;;;;10.53;70.84;99904.93;111100;1212;97679;-63
2023/03/23 01:23:39;;;;;;;35.10;12.40;;;;;;;10.50;70.84;99907.95;110942;1210;138984;-62
2023/03/23 01:26:11;;;;;;;22.50;10.70;;;;;;;10.48;70.80;99905.74;111047;1208;97582;-63
2023/03/23 01:28:37;;;;;;;36.10;12.40;;;;;;;10.47;70.98;99904.20;110984;1212;140215;-63
2023/03/23 01:31:08;;;;;;;31.10;12.40;;;;;;;10.46;70.82;99895.70;111120;1209;97671;-62
2023/03/23 01:33:34;;;;;;;30.80;12.90;;;;;;;10.45;70.97;99890.23;111093;1209;99748;-63
2023/03/23 01:36:06;;;;;;;31.30;14.00;;;;;;;10.42;70.88;99885.55;110942;1209;138463;-64
2023/03/23 01:38:32;;;;;;;31.70;13.00;;;;;;;10.41;70.96;99889.34;111067;1210;97586;-64
2023/03/23 01:40:58;;;;;;;31.60;13.10;;;;;;;10.39;70.94;99885.38;110977;1212;140874;-64
2023/03/23 01:43:23;;;;;;;28.90;13.30;;;;;;;10.37;70.99;99877.08;111166;1209;97593;-65
2023/03/23 01:45:48;;;;;;;39.40;14.10;;;;;;;10.37;71.01;99878.37;110996;1209;108071;-63
2023/03/23 01:48:13;;;;;;;39.60;14.60;;;;;;;10.34;71.09;99877.98;111003;1212;140474;-64
2023/03/23 01:50:46;;;;;;;38.40;13.80;;;;;;;10.32;71.05;99878.23;111139;1209;97606;-64
2023/03/23 01:53:12;;;;;;;32.80;12.80;;;;;;;10.30;71.08;99871.77;110933;1210;139353;-64
2023/03/23 01:55:40;;;;;;;35.30;13.90;;;;;;;10.28;71.18;99869.90;111094;1212;97657;-64
2023/03/23 01:58:07;;;;;;;30.00;12.70;;;;;;;10.25;71.12;99864.20;110829;1210;140387;-63
2023/03/23 02:00:33;;;;;;;34.10;12.20;;;;;;;10.20;71.13;99866.94;110909;1212;97662;-63
2023/03/23 02:03:00;;;;;;;30.30;13.10;;;;;;;10.18;71.27;99862.44;111016;1209;97561;-64
2023/03/23 02:05:40;;;;;;;29.20;12.30;;;;;;;10.16;71.23;99858.39;111030;1210;139125;-64
2023/03/23 02:08:08;;;;;;;28.20;13.10;;;;;;;10.12;71.28;99864.68;111047;1210;97600;-63
2023/03/23 02:10:36;;;;;;;31.90;13.80;;;;;;;10.09;71.33;99853.60;110957;1209;139730;-64
2023/03/23 02:13:04;;;;;;;27.50;11.90;;;;;;;10.06;71.45;99850.52;110939;1209;97593;-63
2023/03/23 02:15:43;;;;;;;29.90;13.10;;;;;;;10.04;71.42;99850.30;111126;1212;99903;-64
2023/03/23 02:18:25;;;;;;;24.90;12.80;;;;;;;10.01;71.64;99845.29;110896;1209;139026;-64
2023/03/23 02:21:22;;;;;;;28.40;12.50;;;;;;;9.99;71.64;99840.19;110888;1212;97600;-64
2023/03/23 02:23:56;;;;;;;29.30;12.40;;;;;;;9.96;71.72;99845.89;111035;1208;138387;-64
2023/03/23 02:26:38;;;;;;;28.50;11.80;;;;;;;9.94;71.74;99845.46;111025;1209;111597;-64
2023/03/23 02:29:18;;;;;;;20.90;10.40;;;;;;;9.91;71.58;99833.31;110927;1212;140530;-64
2023/03/23 02:32:05;;;;;;;23.80;11.30;;;;;;;9.87;71.74;99823.19;111107;1210;107869;-63
2023/03/23 02:34:50;;;;;;;26.00;12.40;;;;;;;9.83;71.96;99821.95;110915;1212;139168;-63
2023/03/23 02:37:27;;;;;;;27.90;12.90;;;;;;;9.81;71.98;99823.00;110991;1212;97650;-63
2023/03/23 02:39:57;;;;;;;26.80;11.10;;;;;;;9.78;72.01;99821.54;111065;1210;111598;-64
2023/03/23 02:42:31;;;;;;;28.60;12.20;;;;;;;9.76;72.14;99818.79;110876;1210;138556;-64
2023/03/23 02:45:03;;;;;;;28.10;12.10;;;;;;;9.75;72.27;99817.40;111120;1210;107657;-64
2023/03/23 02:47:30;;;;;;;26.30;12.60;;;;;;;9.72;72.09;99812.55;110991;1209;140132;-64
2023/03/23 02:49:58;;;;;;;26.10;12.70;;;;;;;9.69;72.18;99811.10;111171;1212;97645;-64
2023/03/23 02:52:37;;;;;;;22.20;11.30;;;;;;;9.68;72.24;99813.83;111017;1210;138718;-63
2023/03/23 02:55:04;;;;;;;20.80;11.00;;;;;;;9.66;72.22;99814.30;110935;1209;100093;-64
2023/03/23 02:57:30;;;;;;;22.70;11.50;;;;;;;9.66;72.44;99819.68;110990;1210;97664;-64
2023/03/23 02:59:56;;;;;;;24.60;10.90;;;;;;;9.64;72.47;99818.36;111050;1212;140429;-64
2023/03/23 03:02:26;;;;;;;29.90;11.30;;;;;;;9.62;72.47;99819.00;111091;1208;96221;-64
2023/03/23 03:05:14;;;;;;;32.30;10.30;;;;;;;9.61;72.50;99818.52;110941;1209;140108;-64
2023/03/23 03:07:48;;;;;;;21.60;10.40;;;;;;;9.61;72.53;99815.86;111030;1210;107080;-64
2023/03/23 03:10:28;;;;;;;30.40;11.80;;;;;;;9.60;72.67;99818.73;110825;1212;140674;-64
2023/03/23 03:13:08;;;;;;;33.10;12.40;;;;;;;9.61;72.76;99818.14;111078;1209;96213;-65
2023/03/23 03:15:40;;;;;;;26.00;10.10;;;;;;;9.63;72.81;99817.35;111023;1208;110371;-64
2023/03/23 03:18:15;;;;;;;25.70;11.60;;;;;;;9.65;72.86;99813.11;110870;1211;139826;-63
2023/03/23 03:20:54;;;;;;;23.40;10.30;;;;;;;9.67;72.86;99808.02;111056;1210;108167;-65
2023/03/23 03:23:22;;;;;;;21.30;9.80;;;;;;;9.71;72.84;99805.85;110924;1209;139100;-64
2023/03/23 03:25:49;;;;;;;20.10;9.70;;;;;;;9.74;72.94;99802.11;111056;1212;99051;-63
2023/03/23 03:28:21;;;;;;;19.90;10.10;;;;;;;9.78;72.93;99799.62;110799;1208;139221;-63
2023/03/23 03:30:54;;;;;;;19.90;8.70;;;;;;;9.80;73.04;99800.75;111140;1209;100000;-63
2023/03/23 03:33:25;;;;;;;21.00;8.90;;;;;;;9.81;73.08;99800.48;111022;1208;108093;-63
2023/03/23 03:35:52;;;;;;;18.10;8.40;;;;;;;9.82;73.05;99790.98;111044;1212;139063;-63
2023/03/23 03:38:17;;;;;;;23.90;8.70;;;;;;;9.82;73.11;99796.69;111038;1211;98140;-63
2023/03/23 03:40:43;;;;;;;18.90;8.20;;;;;;;9.83;73.13;99789.55;110929;1206;138932;-62
2023/03/23 03:43:08;;;;;;;16.10;8.30;;;;;;;9.82;73.21;99792.22;111164;1208;97612;-63
2023/03/23 03:45:33;;;;;;;16.00;8.00;;;;;;;9.82;73.14;99792.06;111028;1209;97675;-63
2023/03/23 03:48:00;;;;;;;16.30;7.70;;;;;;;9.83;73.07;99789.89;110977;1212;139545;-63
2023/03/23 03:50:26;;;;;;;17.80;8.50;;;;;;;9.84;73.14;99791.98;111072;1212;99864;-63
2023/03/23 03:52:52;;;;;;;22.10;9.00;;;;;;;9.83;73.24;99791.13;110992;1209;138934;-63
2023/03/23 03:55:17;;;;;;;17.20;8.60;;;;;;;9.84;73.17;99794.44;111190;1206;99025;-63
2023/03/23 03:57:43;;;;;;;15.40;7.50;;;;;;;9.86;73.24;99793.27;111106;1209;97601;-63
2023/03/23 04:00:14;;;;;;;16.60;8.00;;;;;;;9.87;73.29;99787.31;110954;1209;138208;-63
2023/03/23 04:02:41;;;;;;;16.20;7.60;;;;;;;9.89;73.37;99780.10;111005;1209;107683;-63
2023/03/23 04:05:08;;;;;;;26.60;10.10;;;;;;;9.91;73.38;99781.19;110983;1212;139894;-63
2023/03/23 04:07:33;;;;;;;18.80;8.50;;;;;;;9.94;73.24;99788.19;111134;1209;96967;-63
2023/03/23 04:09:58;;;;;;;16.60;7.60;;;;;;;9.97;73.26;99788.55;111070;1212;97698;-63
2023/03/23 04:12:24;;;;;;;18.40;7.20;;;;;;;10.00;73.29;99790.00;110963;1212;138174;-63
2023/03/23 04:14:49;;;;;;;17.40;7.70;;;;;;;10.03;73.29;99790.88;111088;1208;97601;-62
2023/03/23 04:17:16;;;;;;;17.90;6.80;;;;;;;10.08;73.31;99790.83;110993;1210;138904;-64
2023/03/23 04:19:42;;;;;;;17.80;7.00;;;;;;;10.12;73.20;99795.60;111023;1212;98941;-63
2023/03/23 04:22:07;;;;;;;12.90;6.20;;;;;;;10.17;73.27;99793.69;110937;1212;139590;-62
2023/03/23 04:24:33;;;;;;;14.10;5.80;;;;;;;10.22;73.23;99793.11;111142;1209;97585;-65
2023/03/23 04:26:59;;;;;;;17.50;5.90;;;;;;;10.27;73.29;99787.66;111066;1209;97735;-62
2023/03/23 04:29:24;;;;;;;13.90;6.00;;;;;;;10.30;73.16;99789.26;110970;1212;138862;-63
2023/03/23 04:31:52;;;;;;;15.80;5.90;;;;;;;10.33;73.14;99785.18;111192;1212;97589;-64
2023/03/23 04:34:18;;;;;;;12.00;5.40;;;;;;;10.36;73.11;99787.12;110929;1212;138440;-62
2023/03/23 04:36:44;;;;;;;17.30;5.90;;;;;;;10.39;73.06;99781.44;111077;1209;97578;-63
2023/03/23 04:39:10;;;;;;;10.30;5.60;;;;;;;10.41;73.03;99777.19;111015;1212;97781;-63
2023/03/23 04:41:39;;;;;;;12.30;5.70;;;;;;;10.45;72.95;99770.55;110900;1209;138414;-63
2023/03/23 04:44:05;;;;;;;13.50;5.80;;;;;;;10.47;72.98;99767.90;111018;1211;97710;-62
2023/03/23 04:46:31;;;;;;;15.40;5.50;;;;;;;10.50;72.90;99763.27;110931;1212;138541;-63
2023/03/23 04:48:58;;;;;;;11.70;5.00;;;;;;;10.53;72.93;99766.34;111130;1209;96485;-63
2023/03/23 04:51:26;;;;;;;10.40;5.50;;;;;;;10.55;72.77;99756.91;111014;1212;97703;-63
2023/03/23 04:53:52;;;;;;;14.80;5.60;;;;;;;10.57;72.78;99756.41;110920;1206;138752;-63
2023/03/23 04:56:18;;;;;;;20.50;6.40;;;;;;;10.60;72.62;99756.64;111068;1212;97654;-63
2023/03/23 04:58:44;;;;;;;15.20;5.80;;;;;;;10.63;72.71;99754.50;110892;1209;140339;-63
2023/03/23 05:01:13;;;;;;;12.00;5.80;;;;;;;10.65;72.59;99752.75;111013;1212;97654;-63
2023/03/23 05:03:39;;;;;;;10.20;4.80;;;;;;;10.69;72.64;99753.45;111134;1210;97650;-63
2023/03/23 05:06:06;;;;;;;11.70;5.20;;;;;;;10.72;72.59;99751.98;110911;1212;139926;-63
2023/03/23 05:08:31;;;;;;;13.80;4.70;;;;;;;10.76;72.53;99753.19;111185;1212;98799;-63
2023/03/23 05:10:59;;;;;;;10.20;4.40;;;;;;;10.80;72.44;99752.42;110954;1209;138451;-63
2023/03/23 05:13:25;;;;;;;10.10;4.10;;;;;;;10.84;72.45;99748.80;111108;1209;97750;-63
2023/03/23 05:15:51;;;;;;;9.70;4.40;;;;;;;10.88;72.45;99743.77;111015;1212;97731;-63
2023/03/23 05:18:16;;;;;;;13.00;4.20;;;;;;;10.91;72.42;99738.58;110974;1212;139623;-63
2023/03/23 05:20:42;;;;;;;8.00;4.00;;;;;;;10.93;72.31;99735.37;111021;1209;97658;-63
2023/03/23 05:23:08;;;;;;;9.60;4.00;;;;;;;10.98;72.18;99741.73;110969;1209;139582;-63
2023/03/23 05:25:39;;;;;;;9.50;4.30;;;;;;;11.02;72.24;99735.56;111144;1209;96491;-63
2023/03/23 05:28:05;;;;;;;7.20;4.00;;;;;;;11.06;72.03;99725.13;110968;1212;139026;-63
2023/03/23 05:30:30;;;;;;;8.00;4.20;;;;;;;11.10;71.87;99726.13;111066;1212;98335;-63
2023/03/23 05:32:56;;;;;;;12.70;4.00;;;;;;;11.16;71.91;99723.48;111115;1209;96834;-63
2023/03/23 05:35:22;;;;;;;16.80;4.50;;;;;;;11.20;71.94;99724.27;110900;1212;140219;-63
2023/03/23 05:37:48;;;;;;;8.50;4.80;;;;;;;11.24;71.79;99724.22;111129;1209;96351;-63
2023/03/23 05:40:14;;;;;;;16.10;5.00;;;;;;;11.27;71.77;99726.88;111045;1210;138193;-62
2023/03/23 05:42:40;;;;;;;9.90;4.30;;;;;;;11.30;71.70;99722.77;111046;1208;112734;-63
2023/03/23 05:45:09;;;;;;;10.30;4.90;;;;;;;11.34;71.46;99722.73;111024;1212;97585;-63
2023/03/23 05:47:34;;;;;;;14.40;4.80;;;;;;;11.37;71.50;99720.16;110961;1208;139192;-63
2023/03/23 05:50:00;;;;;;;12.30;4.80;;;;;;;11.41;71.51;99725.18;111042;1209;97591;-63
2023/03/23 05:52:26;;;;;;;22.00;5.70;;;;;;;11.45;71.46;99726.70;110959;1208;141042;-62
2023/03/23 05:54:52;;;;;;;12.00;4.70;;;;;;;11.48;71.43;99734.20;111026;1212;100881;-63
2023/03/23 05:57:21;;;;;;;11.00;3.80;;;;;;;11.52;70.92;99735.92;110983;1208;98320;-63
2023/03/23 05:59:47;;;;;;;12.40;3.50;;;;;;;11.58;71.15;99737.89;110978;1212;141553;-63
2023/03/23 06:02:14;;;;;;;8.90;3.50;;;;;;;11.63;71.03;99740.09;111114;1206;97712;-63
2023/03/23 06:04:40;;;;;;;8.30;3.40;;;;;;;11.68;70.99;99736.54;110850;1212;139977;-65
2023/03/23 06:07:07;;;;;;;6.80;2.90;;;;;;;11.74;71.11;99738.83;111058;1211;97714;-64
2023/03/23 06:09:32;;;;;;;8.70;3.30;;;;;;;11.81;70.30;99732.89;111174;1209;97702;-64
2023/03/23 06:11:58;;;;;;;8.50;3.30;;;;;;;11.89;70.70;99729.34;110972;1209;137393;-64
2023/03/23 06:14:23;;;;;;;8.30;3.50;;;;;;;11.94;70.45;99727.93;111081;1207;97598;-65
2023/03/23 06:16:48;;;;;;;5.60;3.00;;;;;;;12.00;70.45;99722.52;110855;1209;137524;-64
2023/03/23 06:19:15;;;;;;;7.30;3.10;;;;;;;12.07;70.34;99723.21;111024;1210;97684;-65
2023/03/23 06:21:42;;;;;;;9.70;3.20;;;;;;;12.11;70.16;99716.63;111231;1212;111548;-64
2023/03/23 06:24:08;;;;;;;9.10;3.40;;;;;;;12.16;69.99;99713.66;110982;1209;137689;-64
2023/03/23 06:26:38;;;;;;;10.70;5.10;;;;;;;12.19;69.98;99706.85;111096;1208;97720;-64
2023/03/23 06:29:10;;;;;;;8.50;3.70;;;;;;;12.22;69.82;99706.10;112846;1207;138112;-63
2023/03/23 06:31:39;;;;;;;12.20;3.60;;;;;;;12.25;69.68;99697.96;112970;1207;95635;-63
2023/03/23 06:34:05;;;;;;;11.00;3.10;;;;;;;12.31;69.54;99697.58;112878;1207;138686;-62
2023/03/23 06:36:31;;;;;;;6.20;2.80;;;;;;;12.39;69.12;99698.30;112149;1210;98102;-63
2023/03/23 06:38:57;;;;;;;9.20;3.00;;;;;;;12.48;69.29;99704.70;111074;1212;97660;-64
2023/03/23 06:41:22;;;;;;;7.40;3.00;;;;;;;12.54;69.07;99710.75;110804;1210;137602;-65
2023/03/23 06:43:48;;;;;;;9.00;3.00;;;;;;;12.63;68.98;99714.29;110996;1212;97656;-64
2023/03/23 06:46:13;;;;;;;6.70;2.80;;;;;;;12.70;68.79;99710.94;110863;1208;138372;-66
2023/03/23 06:48:38;;;;;;;11.80;2.90;;;;;;;12.78;68.53;99715.24;110867;1208;97617;-65
2023/03/23 06:51:04;;;;;;;10.00;2.90;;;;;;;12.86;68.11;99718.99;110680;1210;97612;-63
2023/03/23 06:53:30;;;;;;;4.00;2.00;;;;;;;12.96;68.02;99712.41;110952;1207;139767;-63
2023/03/23 06:55:56;;;;;;;6.20;2.50;;;;;;;13.06;67.86;99709.90;110902;1209;97631;-63
2023/03/23 06:58:23;;;;;;;6.00;2.10;;;;;;;13.17;67.72;99705.95;110981;1208;138181;-63
2023/03/23 07:00:53;;;;;;;7.30;2.40;;;;;;;13.28;67.39;99704.96;110956;1211;110673;-63
2023/03/23 07:03:19;;;;;;;4.40;2.30;;;;;;;13.41;67.11;99697.08;110817;1209;100398;-64
2023/03/23 07:05:46;;;;;;;10.00;2.70;;;;;;;13.52;66.96;99700.28;110809;1210;139458;-64
2023/03/23 07:08:11;;;;;;;6.30;2.10;;;;;;;13.60;66.80;99699.35;112926;1206;96139;-64
2023/03/23 07:10:38;;;;;;;7.40;2.10;;;;;;;13.67;66.38;99700.27;112912;1207;138626;-64
2023/03/23 07:13:05;;;;;;;5.40;1.90;;;;;;;13.72;65.30;99700.27;113058;1207;100152;-64
2023/03/23 07:15:31;;;;;;;5.60;2.60;;;;;;;13.76;65.46;99701.23;112754;1207;97665;-64
2023/03/23 07:17:57;;;;;;;4.80;2.50;;;;;;;13.81;65.33;99700.20;111445;1208;138311;-64
2023/03/23 07:20:22;;;;;;;4.40;2.10;;;;;;;13.85;65.03;99703.14;111019;1212;96793;-63
2023/03/23 07:22:48;;;;;;;5.50;2.60;;;;;;;13.88;64.88;99703.63;110799;1207;137773;-63
2023/03/23 07:25:13;;;;;;;4.70;2.10;;;;;;;13.92;64.51;99700.77;110881;1208;97712;-64
2023/03/23 07:27:39;;;;;;;5.60;2.60;;;;;;;13.98;64.18;99708.64;111057;1208;98106;-63
2023/03/23 07:30:07;;;;;;;7.60;2.60;;;;;;;14.05;64.38;99707.10;110934;1208;137611;-63
2023/03/23 07:32:32;;;;;;;11.20;2.20;;;;;;;14.13;64.02;99709.52;111147;1209;97581;-63
2023/03/23 07:34:57;;;;;;;3.80;2.20;;;;;;;14.19;63.79;99711.07;110939;1212;138840;-63
2023/03/23 07:37:23;;;;;;;6.10;2.40;;;;;;;14.22;63.11;99713.49;111229;1212;97575;-63
2023/03/23 07:39:49;;;;;;;11.30;2.30;;;;;;;14.24;63.26;99716.27;111247;1208;95826;-63
2023/03/23 07:42:14;;;;;;;9.30;2.60;;;;;;;14.24;63.35;99712.45;110943;1208;138765;-64
2023/03/23 07:44:39;;;;;;;7.10;3.60;;;;;;;14.25;63.31;99709.89;110879;1206;98903;-63
2023/03/23 07:47:05;;;;;;;7.60;2.70;;;;;;;14.23;63.17;99711.98;110595;1212;137427;-63
2023/03/23 07:49:30;;;;;;;4.20;2.60;;;;;;;14.21;63.12;99710.55;111003;1207;97584;-63
2023/03/23 07:51:57;;;;;;;13.60;3.80;;;;;;;14.19;63.04;99710.48;110909;1206;97671;-64
2023/03/23 07:54:23;;;;;;;8.40;2.70;;;;;;;14.17;62.89;99711.18;111035;1208;139653;-63
2023/03/23 07:56:48;;;;;;;7.40;2.70;;;;;;;14.16;62.99;99704.80;111053;1212;97734;-62
2023/03/23 07:59:13;;;;;;;8.30;3.10;;;;;;;14.17;62.87;99705.30;110875;1212;139020;-62
2023/03/23 08:01:39;;;;;;;8.50;2.90;;;;;;;14.18;62.71;99711.30;110938;1207;97574;-62
2023/03/23 08:04:05;;;;;;;7.30;2.60;;;;;;;14.18;62.51;99715.42;111016;1207;138131;-62
2023/03/23 08:06:33;;;;;;;7.50;3.10;;;;;;;14.16;62.44;99715.61;111103;1207;97609;-63
2023/03/23 08:08:59;;;;;;;6.30;2.80;;;;;;;14.19;62.56;99722.00;111100;1207;99671;-64
2023/03/23 08:11:25;;;;;;;10.10;2.50;;;;;;;14.27;62.40;99726.09;110865;1207;138363;-64
2023/03/23 08:13:52;;;;;;;7.50;3.00;;;;;;;14.33;62.36;99727.46;111018;1206;97680;-64
2023/03/23 08:16:18;;;;;;;9.60;3.20;;;;;;;14.40;62.56;99721.34;110993;1212;137735;-63
2023/03/23 08:18:44;;;;;;;7.00;3.10;;;;;;;14.50;62.61;99715.45;111059;1208;99174;-64
2023/03/23 08:21:09;;;;;;;9.40;3.40;;;;;;;14.56;62.39;99712.98;110875;1207;97702;-64
2023/03/23 08:23:36;;;;;;;9.50;2.90;;;;;;;14.62;62.31;99717.79;111010;1209;137844;-64
2023/03/23 08:26:07;;;;;;;5.90;2.60;;;;;;;14.66;62.09;99720.73;111054;1212;111526;-64
2023/03/23 08:28:33;;;;;;;7.40;3.00;;;;;;;14.69;61.90;99715.86;111005;1212;137966;-64
2023/03/23 08:30:59;;;;;;;5.20;2.60;;;;;;;14.70;61.99;99711.60;111010;1209;96384;-64
2023/03/23 08:33:24;;;;;;;8.20;2.70;;;;;;;14.73;61.83;99708.67;111018;1209;97758;-64
2023/03/23 08:35:59;;;;;;;7.80;2.10;;;;;;;14.74;61.30;99707.40;110833;1207;137575;-64
2023/03/23 08:38:25;;;;;;;9.40;3.50;;;;;;;14.75;61.41;99698.09;111074;1208;101215;-64
2023/03/23 08:40:51;;;;;;;5.90;2.40;;;;;;;14.81;61.27;99711.36;110912;1209;137924;-64
2023/03/23 08:43:17;;;;;;;4.90;3.30;;;;;;;14.84;60.79;99714.11;111082;1209;98027;-64
2023/03/23 08:45:43;;;;;;;7.30;2.90;;;;;;;14.87;60.80;99713.35;111084;1212;110605;-64
2023/03/23 08:48:08;;;;;;;8.90;3.20;;;;;;;14.88;60.51;99714.73;110932;1209;137642;-64
2023/03/23 08:50:35;;;;;;;5.30;2.40;;;;;;;14.89;60.16;99716.30;111092;1207;98832;-63
2023/03/23 08:53:01;;;;;;;7.00;3.00;;;;;;;14.89;59.25;99722.38;111074;1213;137442;-64
2023/03/23 08:55:26;;;;;;;3.80;2.30;;;;;;;14.85;59.03;99713.13;111070;1208;97567;-63
2023/03/23 08:57:52;;;;;;;4.60;2.00;;;;;;;14.86;59.21;99707.73;111037;1213;98112;-64
2023/03/23 09:00:20;;;;;;;4.40;2.00;;;;;;;14.90;59.27;99705.06;110979;1207;138628;-63
2023/03/23 09:02:49;;;;;;;4.50;2.30;;;;;;;14.95;59.41;99702.86;111154;1208;97766;-64
2023/03/23 09:05:16;;;;;;;3.90;1.90;;;;;;;15.01;59.23;99707.12;110924;1208;137546;-64
2023/03/23 09:07:51;;;;;;;6.00;2.40;;;;;;;15.09;59.40;99707.52;111072;1206;100256;-64
2023/03/23 09:10:18;;;;;;;7.10;2.40;;;;;;;15.18;59.06;99717.45;110934;1207;138738;-64
2023/03/23 09:12:45;;;;;;;9.40;2.40;;;;;;;15.21;59.00;99713.61;111054;1208;97614;-64
2023/03/23 09:15:17;;;;;;;4.40;2.60;;;;;;;15.19;58.79;99710.86;111073;1207;97638;-64
2023/03/23 09:17:48;;;;;;;4.90;2.50;;;;;;;15.19;58.80;99719.88;110929;1211;137943;-63
2023/03/23 09:20:16;;;;;;;4.90;2.50;;;;;;;15.23;58.66;99726.40;111003;1208;100145;-64
2023/03/23 09:22:45;;;;;;;7.20;2.70;;;;;;;15.31;58.36;99728.50;110839;1207;138525;-64
2023/03/23 09:25:13;;;;;;;5.70;2.30;;;;;;;15.50;57.95;99732.27;111048;1210;97581;-64
2023/03/23 09:27:39;;;;;;;8.00;2.40;;;;;;;15.67;57.61;99731.13;110846;1209;97652;-64
2023/03/23 09:30:10;;;;;;;3.20;2.00;;;;;;;15.81;57.62;99729.99;110901;1207;138302;-65
2023/03/23 09:32:36;;;;;;;;;;;;;;;15.89;57.22;99734.15;111091;1208;98939;-64
2023/03/23 09:35:04;;;;;;;5.90;2.40;;;;;;;15.85;56.11;99737.54;110961;1212;124416;-66
2023/03/23 09:37:29;;;;;;;5.90;2.30;;;;;;;15.85;56.53;99730.58;111121;1212;96211;-65
2023/03/23 09:39:55;;;;;;;5.90;2.20;;;;;;;15.87;56.23;99727.33;111138;1208;97584;-65
2023/03/23 09:42:20;;;;;;;4.10;1.70;;;;;;;15.87;55.93;99741.33;110835;1207;137921;-64
2023/03/23 09:45:02;;;;;;;8.30;2.30;;;;;;;15.83;55.65;99740.46;111067;1211;97599;-64
2023/03/23 09:47:33;;;;;;;7.10;2.00;;;;;;;15.77;55.07;99734.24;110879;1212;137654;-64
2023/03/23 09:50:08;;;;;;;10.50;1.40;;;;;;;15.71;54.66;99749.13;111187;1210;97702;-63
2023/03/23 09:52:50;;;;;;;6.90;1.80;;;;;;;15.65;54.25;99759.55;110853;1212;138112;-63
2023/03/23 09:55:18;;;;;;;8.10;2.10;;;;;;;15.57;54.78;99761.02;111067;1208;100389;-66
2023/03/23 09:57:52;;;;;;;7.60;2.70;;;;;;;15.51;54.82;99755.17;111215;1207;106508;-64
2023/03/23 10:00:31;;;;;;;9.20;2.20;;;;;;;15.44;54.96;99765.46;110950;1212;139352;-65
2023/03/23 10:03:18;;;;;;;4.70;1.60;;;;;;;15.36;54.92;99766.82;111065;1212;97698;-64
2023/03/23 10:05:49;;;;;;;2.40;1.50;;;;;;;15.26;55.15;99773.89;110906;1212;138501;-64
2023/03/23 10:08:18;;;;;;;6.20;1.50;;;;;;;15.18;55.23;99779.17;110650;1209;99565;-64
2023/03/23 10:10:55;;;;;;;5.70;1.60;;;;;;;15.08;55.49;99778.71;110909;1212;137896;-65
2023/03/23 10:13:58;;;;;;;4.90;1.30;;;;;;;14.96;55.69;99794.90;110541;1207;97601;-64
2023/03/23 10:16:32;;;;;;;9.40;1.60;;;;;;;14.83;55.78;99797.50;110615;1207;138285;-64
2023/03/23 10:19:46;;;;;;;9.90;1.90;;;;;;;14.70;56.08;99802.77;110746;1212;111324;-63
2023/03/23 10:22:14;;;;;;;10.40;1.80;;;;;;;14.54;56.53;99810.98;110916;1208;137912;-64
2023/03/23 10:24:49;;;;;;;7.60;1.60;;;;;;;14.43;56.99;99800.47;110576;1207;107261;-64
2023/03/23 10:27:44;;;;;;;14.50;2.00;;;;;;;14.37;57.30;99802.66;110500;1212;97782;-64
2023/03/23 10:30:27;;;;;;;2.20;1.30;;;;;;;14.28;57.80;99808.35;110689;1212;139166;-64
2023/03/23 10:33:18;;;;;;;3.80;1.70;;;;;;;14.19;58.30;99811.67;110680;1209;110762;-63
2023/03/23 10:36:00;;;;;;;2.20;1.50;;;;;;;14.06;58.86;99813.33;110491;1212;138991;-64
2023/03/23 10:38:39;;;;;;;2.60;1.40;;;;;;;13.91;59.68;99821.76;110615;1209;108074;-64
2023/03/23 10:41:11;;;;;;;8.00;2.20;;;;;;;13.81;60.33;99823.56;110372;1212;138422;-64
2023/03/23 10:43:39;;;;;;;2.20;1.70;;;;;;;13.77;61.12;99824.38;110809;1209;98025;-64
2023/03/23 10:46:38;;;;;;;4.40;1.80;;;;;;;13.70;61.72;99825.73;110987;1208;139238;-64
2023/03/23 10:49:11;;;;;;;9.00;1.60;;;;;;;13.64;62.30;99825.77;110974;1212;100582;-64
2023/03/23 10:51:44;;;;;;;4.70;2.20;;;;;;;13.62;62.62;99829.51;111012;1206;107743;-66
2023/03/23 10:54:10;;;;;;;3.70;2.10;;;;;;;13.65;63.13;99836.51;110770;1212;138848;-63
2023/03/23 10:56:38;;;;;;;3.10;2.00;;;;;;;13.62;63.52;99838.71;111062;1211;97750;-64
2023/03/23 10:59:13;;;;;;;4.40;2.20;;;;;;;13.65;63.62;99827.38;110875;1212;139375;-65
2023/03/23 11:01:42;;;;;;;4.80;2.60;;;;;;;13.78;63.77;99822.48;111028;1212;99908;-64
2023/03/23 11:04:14;;;;;;;5.90;1.80;;;;;;;13.90;63.90;99825.39;111064;1212;138905;-64
2023/03/23 11:06:45;;;;;;;6.60;2.40;;;;;;;13.93;63.80;99825.59;111091;1212;97591;-64
2023/03/23 11:09:13;;;;;;;5.70;2.00;;;;;;;13.94;63.81;99827.29;110945;1209;97664;-64
2023/03/23 11:11:49;;;;;;;5.10;1.90;;;;;;;13.94;63.87;99824.06;110890;1212;138575;-63
2023/03/23 11:14:38;;;;;;;5.20;2.00;;;;;;;13.92;63.81;99818.42;111023;1212;99982;-64
2023/03/23 11:17:19;;;;;;;3.60;1.80;;;;;;;13.96;63.82;99816.52;110955;1208;138330;-64
2023/03/23 11:19:45;;;;;;;3.10;1.50;;;;;;;13.98;63.77;99818.93;111058;1211;97802;-64
2023/03/23 11:22:26;;;;;;;1.70;1.30;;;;;;;14.00;63.91;99817.75;111014;1207;139181;-64
2023/03/23 11:24:59;;;;;;;2.20;1.50;;;;;;;14.08;63.83;99815.86;111067;1206;111368;-65
2023/03/23 11:27:26;;;;;;;5.70;1.90;;;;;;;14.17;63.95;99815.91;111026;1208;100134;-65